sensor_id;sensor_type;location;lat;lon;timestamp;pressure;altitude;pressure_sealevel;temperature;humidity
25420;BME280;13354;48.174;11.566;2023-04-28T00:02:18;95676.03;;;10.99;69.82
25420;BME280;13354;48.174;11.566;2023-04-28T00:04:43;95663.81;;;11.04;69.57
25420;BME280;13354;48.174;11.566;2023-04-28T00:07:09;95670.34;;;11.02;69.62
25420;BME280;13354;48.174;11.566;2023-04-28T00:09:34;95666.91;;;11.08;69.48
25420;BME280;13354;48.174;11.566;2023-04-28T00:12:00;95669.75;;;11.06;69.25
25420;BME280;13354;48.174;11.566;2023-04-28T00:14:26;95666.72;;;11.09;69.42
25420;BME280;13354;48.174;11.566;2023-04-28T00:16:51;95664.63;;;10.98;69.75
25420;BME280;13354;48.174;11.566;2023-04-28T00:19:17;95657.16;;;11.15;69.37
25420;BME280;13354;48.174;11.566;2023-04-28T00:21:42;95652.28;;;11.19;68.83
25420;BME280;13354;48.174;11.566;2023-04-28T00:24:07;95651.22;;;11.06;69.59
25420;BME280;13354;48.174;11.566;2023-04-28T00:26:32;95654.34;;;11.17;68.88
25420;BME280;13354;48.174;11.566;2023-04-28T00:28:57;95649.22;;;11.15;68.73
25420;BME280;13354;48.174;11.566;2023-04-28T00:31:23;95643.34;;;11.20;68.53
25420;BME280;13354;48.174;11.566;2023-04-28T00:33:48;95643.34;;;11.20;68.76
25420;BME280;13354;48.174;11.566;2023-04-28T00:36:13;95642.94;;;11.23;68.17
25420;BME280;13354;48.174;11.566;2023-04-28T00:38:38;95638.28;;;11.25;68.42
25420;BME280;13354;48.174;11.566;2023-04-28T00:41:03;95636.47;;;11.32;67.77
25420;BME280;13354;48.174;11.566;2023-04-28T00:43:29;95634.16;;;11.22;68.43
25420;BME280;13354;48.174;11.566;2023-04-28T00:45:54;95643.38;;;11.26;68.41
25420;BME280;13354;48.174;11.566;2023-04-28T00:48:19;95640.72;;;11.26;68.25
25420;BME280;13354;48.174;11.566;2023-04-28T00:50:45;95641.94;;;11.24;68.27
25420;BME280;13354;48.174;11.566;2023-04-28T00:53:11;95645.97;;;11.13;69.35
25420;BME280;13354;48.174;11.566;2023-04-28T00:55:37;95644.16;;;11.20;68.75
25420;BME280;13354;48.174;11.566;2023-04-28T00:58:02;95633.13;;;11.17;68.71
25420;BME280;13354;48.174;11.566;2023-04-28T01:00:28;95631.31;;;11.17;68.65
25420;BME280;13354;48.174;11.566;2023-04-28T01:02:54;95632.72;;;11.13;68.96
25420;BME280;13354;48.174;11.566;2023-04-28T01:05:19;95630.66;;;11.15;68.71
25420;BME280;13354;48.174;11.566;2023-04-28T01:07:44;95626.19;;;11.09;68.63
25420;BME280;13354;48.174;11.566;2023-04-28T01:10:09;95621.53;;;11.18;68.45
25420;BME280;13354;48.174;11.566;2023-04-28T01:12:35;95623.53;;;11.09;69.23
25420;BME280;13354;48.174;11.566;2023-04-28T01:15:00;95616.16;;;11.04;69.18
25420;BME280;13354;48.174;11.566;2023-04-28T01:17:26;95619.81;;;11.03;69.46
25420;BME280;13354;48.174;11.566;2023-04-28T01:19:51;95611.84;;;10.97;70.14
25420;BME280;13354;48.174;11.566;2023-04-28T01:22:17;95603.47;;;10.93;70.10
25420;BME280;13354;48.174;11.566;2023-04-28T01:24:42;95617.75;;;10.99;69.98
25420;BME280;13354;48.174;11.566;2023-04-28T01:27:07;95610.28;;;11.09;69.36
25420;BME280;13354;48.174;11.566;2023-04-28T01:29:32;95603.09;;;11.03;69.72
25420;BME280;13354;48.174;11.566;2023-04-28T01:31:57;95596.56;;;10.99;70.51
25420;BME280;13354;48.174;11.566;2023-04-28T01:34:23;95600.41;;;10.96;70.57
25420;BME280;13354;48.174;11.566;2023-04-28T01:36:48;95605.69;;;10.89;71.49
25420;BME280;13354;48.174;11.566;2023-04-28T01:39:13;95601.59;;;10.87;71.22
25420;BME280;13354;48.174;11.566;2023-04-28T01:41:39;95601.00;;;10.92;71.16
25420;BME280;13354;48.174;11.566;2023-04-28T01:44:04;95597.72;;;10.89;71.06
25420;BME280;13354;48.174;11.566;2023-04-28T01:46:31;95593.72;;;11.00;70.25
25420;BME280;13354;48.174;11.566;2023-04-28T01:48:56;95598.19;;;11.00;70.24
25420;BME280;13354;48.174;11.566;2023-04-28T01:51:23;95592.72;;;11.01;70.66
25420;BME280;13354;48.174;11.566;2023-04-28T01:53:49;95595.75;;;10.98;71.08
25420;BME280;13354;48.174;11.566;2023-04-28T01:56:14;95607.09;;;10.85;71.81
25420;BME280;13354;48.174;11.566;2023-04-28T01:58:39;95595.50;;;10.93;71.39
25420;BME280;13354;48.174;11.566;2023-04-28T02:01:04;95594.94;;;10.98;71.10
25420;BME280;13354;48.174;11.566;2023-04-28T02:03:30;95594.56;;;11.07;70.23
25420;BME280;13354;48.174;11.566;2023-04-28T02:05:55;95599.69;;;11.09;69.92
25420;BME280;13354;48.174;11.566;2023-04-28T02:08:20;95603.16;;;11.09;69.97
25420;BME280;13354;48.174;11.566;2023-04-28T02:10:46;95601.47;;;11.02;70.22
25420;BME280;13354;48.174;11.566;2023-04-28T02:13:11;95600.09;;;11.12;69.92
25420;BME280;13354;48.174;11.566;2023-04-28T02:15:42;95601.22;;;10.97;70.64
25420;BME280;13354;48.174;11.566;2023-04-28T02:18:08;95607.50;;;10.89;71.38
25420;BME280;13354;48.174;11.566;2023-04-28T02:20:33;95614.69;;;10.95;71.39
25420;BME280;13354;48.174;11.566;2023-04-28T02:22:59;95612.63;;;10.91;71.72
25420;BME280;13354;48.174;11.566;2023-04-28T02:25:25;95615.03;;;10.85;71.60
25420;BME280;13354;48.174;11.566;2023-04-28T02:27:50;95605.97;;;11.01;71.25
25420;BME280;13354;48.174;11.566;2023-04-28T02:30:16;95600.66;;;11.01;71.15
25420;BME280;13354;48.174;11.566;2023-04-28T02:32:41;95605.34;;;10.99;71.57
25420;BME280;13354;48.174;11.566;2023-04-28T02:35:06;95599.81;;;11.01;71.34
25420;BME280;13354;48.174;11.566;2023-04-28T02:37:32;95595.94;;;10.90;72.12
25420;BME280;13354;48.174;11.566;2023-04-28T02:39:57;95586.50;;;10.81;72.88
25420;BME280;13354;48.174;11.566;2023-04-28T02:42:22;95578.94;;;10.78;73.58
25420;BME280;13354;48.174;11.566;2023-04-28T02:44:47;95590.50;;;10.70;74.13
25420;BME280;13354;48.174;11.566;2023-04-28T02:47:12;95588.06;;;10.69;74.49
25420;BME280;13354;48.174;11.566;2023-04-28T02:49:38;95599.06;;;10.72;73.82
25420;BME280;13354;48.174;11.566;2023-04-28T02:52:03;95584.38;;;10.70;74.35
25420;BME280;13354;48.174;11.566;2023-04-28T02:54:28;95572.47;;;10.87;73.71
25420;BME280;13354;48.174;11.566;2023-04-28T02:56:54;95561.66;;;10.88;73.86
25420;BME280;13354;48.174;11.566;2023-04-28T02:59:20;95556.53;;;10.80;74.48
25420;BME280;13354;48.174;11.566;2023-04-28T03:01:45;95560.34;;;10.71;75.53
25420;BME280;13354;48.174;11.566;2023-04-28T03:04:10;95568.88;;;10.67;76.42
25420;BME280;13354;48.174;11.566;2023-04-28T03:06:35;95567.31;;;10.72;75.75
25420;BME280;13354;48.174;11.566;2023-04-28T03:09:01;95562.28;;;10.84;74.94
25420;BME280;13354;48.174;11.566;2023-04-28T03:11:26;95560.50;;;10.98;74.06
25420;BME280;13354;48.174;11.566;2023-04-28T03:13:51;95555.94;;;10.85;74.23
25420;BME280;13354;48.174;11.566;2023-04-28T03:16:16;95553.69;;;10.82;74.55
25420;BME280;13354;48.174;11.566;2023-04-28T03:18:41;95558.13;;;10.75;75.58
25420;BME280;13354;48.174;11.566;2023-04-28T03:21:07;95568.03;;;11.01;75.01
25420;BME280;13354;48.174;11.566;2023-04-28T03:23:32;95563.28;;;10.83;75.28
25420;BME280;13354;48.174;11.566;2023-04-28T03:25:57;95558.22;;;10.88;75.42
25420;BME280;13354;48.174;11.566;2023-04-28T03:28:22;95565.34;;;10.87;75.97
25420;BME280;13354;48.174;11.566;2023-04-28T03:30:47;95563.91;;;10.85;75.69
25420;BME280;13354;48.174;11.566;2023-04-28T03:33:13;95568.53;;;10.76;76.86
25420;BME280;13354;48.174;11.566;2023-04-28T03:35:38;95565.38;;;10.94;76.05
25420;BME280;13354;48.174;11.566;2023-04-28T03:38:03;95558.84;;;10.90;76.05
25420;BME280;13354;48.174;11.566;2023-04-28T03:40:28;95550.63;;;10.78;76.51
25420;BME280;13354;48.174;11.566;2023-04-28T03:42:54;95545.50;;;10.70;77.53
25420;BME280;13354;48.174;11.566;2023-04-28T03:45:19;95545.75;;;10.82;77.59
25420;BME280;13354;48.174;11.566;2023-04-28T03:47:44;95552.84;;;10.75;78.09
25420;BME280;13354;48.174;11.566;2023-04-28T03:50:09;95564.28;;;10.75;78.77
25420;BME280;13354;48.174;11.566;2023-04-28T03:52:34;95557.56;;;10.79;79.11
25420;BME280;13354;48.174;11.566;2023-04-28T03:55:00;95557.34;;;10.81;79.03
25420;BME280;13354;48.174;11.566;2023-04-28T03:57:25;95562.88;;;10.79;79.31
25420;BME280;13354;48.174;11.566;2023-04-28T03:59:50;95570.59;;;10.81;79.68
25420;BME280;13354;48.174;11.566;2023-04-28T04:02:16;95564.56;;;11.00;77.40
25420;BME280;13354;48.174;11.566;2023-04-28T04:04:41;95566.03;;;11.03;77.00
25420;BME280;13354;48.174;11.566;2023-04-28T04:07:06;95563.72;;;10.93;77.83
25420;BME280;13354;48.174;11.566;2023-04-28T04:09:31;95566.91;;;10.75;80.87
25420;BME280;13354;48.174;11.566;2023-04-28T04:11:57;95573.38;;;10.66;82.53
25420;BME280;13354;48.174;11.566;2023-04-28T04:14:22;95575.59;;;10.62;84.12
25420;BME280;13354;48.174;11.566;2023-04-28T04:16:48;95574.41;;;10.65;84.46
25420;BME280;13354;48.174;11.566;2023-04-28T04:19:13;95571.53;;;10.67;84.45
25420;BME280;13354;48.174;11.566;2023-04-28T04:21:38;95571.34;;;10.68;84.21
25420;BME280;13354;48.174;11.566;2023-04-28T04:24:03;95580.50;;;10.66;84.42
25420;BME280;13354;48.174;11.566;2023-04-28T04:26:29;95576.44;;;10.70;84.93
25420;BME280;13354;48.174;11.566;2023-04-28T04:28:54;95566.84;;;10.62;85.20
25420;BME280;13354;48.174;11.566;2023-04-28T04:31:19;95558.94;;;10.69;85.29
25420;BME280;13354;48.174;11.566;2023-04-28T04:33:46;95551.38;;;10.66;85.24
25420;BME280;13354;48.174;11.566;2023-04-28T04:36:11;95546.84;;;10.59;85.81
25420;BME280;13354;48.174;11.566;2023-04-28T04:38:37;95548.47;;;10.54;86.33
25420;BME280;13354;48.174;11.566;2023-04-28T04:41:02;95548.84;;;10.51;87.05
25420;BME280;13354;48.174;11.566;2023-04-28T04:43:27;95547.22;;;10.56;85.03
25420;BME280;13354;48.174;11.566;2023-04-28T04:45:52;95555.97;;;10.50;84.83
25420;BME280;13354;48.174;11.566;2023-04-28T04:48:18;95547.66;;;10.60;85.30
25420;BME280;13354;48.174;11.566;2023-04-28T04:50:43;95544.97;;;10.47;85.23
25420;BME280;13354;48.174;11.566;2023-04-28T04:53:09;95551.00;;;10.40;85.44
25420;BME280;13354;48.174;11.566;2023-04-28T04:55:34;95537.84;;;10.47;85.49
25420;BME280;13354;48.174;11.566;2023-04-28T04:57:59;95538.81;;;10.39;87.22
25420;BME280;13354;48.174;11.566;2023-04-28T05:00:24;95556.91;;;10.36;88.05
25420;BME280;13354;48.174;11.566;2023-04-28T05:02:50;95551.41;;;10.37;88.85
25420;BME280;13354;48.174;11.566;2023-04-28T05:05:15;95558.41;;;10.52;87.18
25420;BME280;13354;48.174;11.566;2023-04-28T05:07:41;95564.88;;;10.43;86.11
25420;BME280;13354;48.174;11.566;2023-04-28T05:10:06;95569.81;;;10.46;86.01
25420;BME280;13354;48.174;11.566;2023-04-28T05:12:32;95573.81;;;10.42;86.26
25420;BME280;13354;48.174;11.566;2023-04-28T05:14:57;95581.16;;;10.39;85.60
25420;BME280;13354;48.174;11.566;2023-04-28T05:17:22;95577.63;;;10.60;84.51
25420;BME280;13354;48.174;11.566;2023-04-28T05:19:48;95581.03;;;10.54;85.32
25420;BME280;13354;48.174;11.566;2023-04-28T05:22:13;95581.03;;;10.54;85.71
25420;BME280;13354;48.174;11.566;2023-04-28T05:24:38;95580.56;;;10.44;85.51
25420;BME280;13354;48.174;11.566;2023-04-28T05:27:03;95582.09;;;10.60;84.96
25420;BME280;13354;48.174;11.566;2023-04-28T05:29:29;95586.34;;;10.54;84.09
25420;BME280;13354;48.174;11.566;2023-04-28T05:31:54;95576.78;;;10.60;84.13
25420;BME280;13354;48.174;11.566;2023-04-28T05:34:19;95574.78;;;10.62;84.26
25420;BME280;13354;48.174;11.566;2023-04-28T05:36:45;95578.00;;;10.57;84.80
25420;BME280;13354;48.174;11.566;2023-04-28T05:39:10;95569.69;;;10.60;84.74
25420;BME280;13354;48.174;11.566;2023-04-28T05:41:35;95569.25;;;10.57;85.17
25420;BME280;13354;48.174;11.566;2023-04-28T05:44:00;95576.13;;;10.51;85.44
25420;BME280;13354;48.174;11.566;2023-04-28T05:46:26;95567.66;;;10.62;85.49
25420;BME280;13354;48.174;11.566;2023-04-28T05:48:51;95571.50;;;10.60;85.56
25420;BME280;13354;48.174;11.566;2023-04-28T05:51:16;95563.97;;;10.63;85.14
25420;BME280;13354;48.174;11.566;2023-04-28T05:53:41;95553.44;;;10.70;84.46
25420;BME280;13354;48.174;11.566;2023-04-28T05:56:07;95561.81;;;10.74;83.81
25420;BME280;13354;48.174;11.566;2023-04-28T05:58:32;95564.28;;;10.82;82.67
25420;BME280;13354;48.174;11.566;2023-04-28T06:00:57;95572.00;;;10.77;83.64
25420;BME280;13354;48.174;11.566;2023-04-28T06:03:23;95579.53;;;10.73;84.78
25420;BME280;13354;48.174;11.566;2023-04-28T06:05:48;95575.75;;;10.96;83.53
25420;BME280;13354;48.174;11.566;2023-04-28T06:08:13;95586.38;;;10.96;81.29
25420;BME280;13354;48.174;11.566;2023-04-28T06:10:38;95578.25;;;10.97;80.97
25420;BME280;13354;48.174;11.566;2023-04-28T06:13:04;95577.25;;;11.05;80.42
25420;BME280;13354;48.174;11.566;2023-04-28T06:15:30;95570.94;;;11.06;80.61
25420;BME280;13354;48.174;11.566;2023-04-28T06:17:56;95565.41;;;11.07;80.00
25420;BME280;13354;48.174;11.566;2023-04-28T06:20:21;95571.53;;;11.08;79.93
25420;BME280;13354;48.174;11.566;2023-04-28T06:22:46;95570.31;;;11.10;79.59
25420;BME280;13354;48.174;11.566;2023-04-28T06:25:12;95564.47;;;11.22;78.29
25420;BME280;13354;48.174;11.566;2023-04-28T06:27:37;95563.81;;;11.13;78.72
25420;BME280;13354;48.174;11.566;2023-04-28T06:30:03;95568.72;;;11.23;78.24
25420;BME280;13354;48.174;11.566;2023-04-28T06:32:28;95554.47;;;11.17;79.12
25420;BME280;13354;48.174;11.566;2023-04-28T06:34:53;95556.31;;;11.30;78.05
25420;BME280;13354;48.174;11.566;2023-04-28T06:37:18;95551.44;;;11.27;78.27
25420;BME280;13354;48.174;11.566;2023-04-28T06:39:44;95548.19;;;11.31;78.73
25420;BME280;13354;48.174;11.566;2023-04-28T06:42:09;95548.81;;;11.40;79.22
25420;BME280;13354;48.174;11.566;2023-04-28T06:44:34;95544.94;;;11.36;80.04
25420;BME280;13354;48.174;11.566;2023-04-28T06:47:00;95550.50;;;11.54;79.90
25420;BME280;13354;48.174;11.566;2023-04-28T06:49:25;95546.84;;;11.69;79.47
25420;BME280;13354;48.174;11.566;2023-04-28T06:51:51;95544.00;;;11.77;79.36
25420;BME280;13354;48.174;11.566;2023-04-28T06:54:16;95550.94;;;11.78;80.09
25420;BME280;13354;48.174;11.566;2023-04-28T06:56:42;95534.44;;;11.82;79.57
25420;BME280;13354;48.174;11.566;2023-04-28T06:59:07;95529.34;;;11.94;79.51
25420;BME280;13354;48.174;11.566;2023-04-28T07:01:32;95532.19;;;11.99;78.79
25420;BME280;13354;48.174;11.566;2023-04-28T07:03:57;95532.22;;;12.13;78.20
25420;BME280;13354;48.174;11.566;2023-04-28T07:06:23;95530.78;;;12.23;77.71
25420;BME280;13354;48.174;11.566;2023-04-28T07:08:48;95524.63;;;12.29;77.44
25420;BME280;13354;48.174;11.566;2023-04-28T07:11:13;95525.47;;;12.30;76.87
25420;BME280;13354;48.174;11.566;2023-04-28T07:13:39;95521.78;;;12.38;76.63
25420;BME280;13354;48.174;11.566;2023-04-28T07:16:04;95536.47;;;12.47;76.23
25420;BME280;13354;48.174;11.566;2023-04-28T07:18:30;95527.06;;;12.51;76.52
25420;BME280;13354;48.174;11.566;2023-04-28T07:20:55;95527.06;;;12.44;76.63
25420;BME280;13354;48.174;11.566;2023-04-28T07:23:20;95524.16;;;12.59;76.51
25420;BME280;13354;48.174;11.566;2023-04-28T07:25:45;95517.69;;;12.48;76.77
25420;BME280;13354;48.174;11.566;2023-04-28T07:28:11;95516.81;;;12.54;77.00
25420;BME280;13354;48.174;11.566;2023-04-28T07:30:37;95530.09;;;12.68;76.04
25420;BME280;13354;48.174;11.566;2023-04-28T07:33:03;95524.16;;;12.66;76.16
25420;BME280;13354;48.174;11.566;2023-04-28T07:35:28;95530.09;;;12.54;77.50
25420;BME280;13354;48.174;11.566;2023-04-28T07:37:53;95525.00;;;12.53;77.54
25420;BME280;13354;48.174;11.566;2023-04-28T07:40:19;95537.06;;;12.49;76.87
25420;BME280;13354;48.174;11.566;2023-04-28T07:42:44;95521.53;;;12.52;76.81
25420;BME280;13354;48.174;11.566;2023-04-28T07:45:10;95534.19;;;12.50;77.36
25420;BME280;13354;48.174;11.566;2023-04-28T07:47:35;95530.72;;;12.56;77.64
25420;BME280;13354;48.174;11.566;2023-04-28T07:50:01;95539.31;;;12.52;77.80
25420;BME280;13354;48.174;11.566;2023-04-28T07:52:29;95544.22;;;12.48;77.69
25420;BME280;13354;48.174;11.566;2023-04-28T07:54:54;95541.97;;;12.45;78.53
25420;BME280;13354;48.174;11.566;2023-04-28T07:57:20;95545.63;;;12.51;78.81
25420;BME280;13354;48.174;11.566;2023-04-28T07:59:45;95539.91;;;12.47;78.48
25420;BME280;13354;48.174;11.566;2023-04-28T08:02:10;95545.22;;;12.61;78.32
25420;BME280;13354;48.174;11.566;2023-04-28T08:04:37;95545.63;;;12.51;78.12
25420;BME280;13354;48.174;11.566;2023-04-28T08:07:03;95546.91;;;12.35;79.87
25420;BME280;13354;48.174;11.566;2023-04-28T08:09:28;95540.59;;;12.23;81.05
25420;BME280;13354;48.174;11.566;2023-04-28T08:11:53;95546.28;;;12.13;82.41
25420;BME280;13354;48.174;11.566;2023-04-28T08:14:18;95537.53;;;12.19;82.68
25420;BME280;13354;48.174;11.566;2023-04-28T08:16:44;95531.78;;;12.22;84.96
25420;BME280;13354;48.174;11.566;2023-04-28T08:19:10;95526.50;;;12.16;85.15
25420;BME280;13354;48.174;11.566;2023-04-28T08:21:36;95532.22;;;12.06;86.49
25420;BME280;13354;48.174;11.566;2023-04-28T08:24:01;95523.03;;;12.15;86.91
25420;BME280;13354;48.174;11.566;2023-04-28T08:26:26;95518.31;;;12.24;86.20
25420;BME280;13354;48.174;11.566;2023-04-28T08:28:51;95526.28;;;12.24;85.30
25420;BME280;13354;48.174;11.566;2023-04-28T08:31:17;95527.94;;;12.12;86.76
25420;BME280;13354;48.174;11.566;2023-04-28T08:33:42;95527.94;;;12.05;85.99
25420;BME280;13354;48.174;11.566;2023-04-28T08:36:09;95524.88;;;12.08;86.07
25420;BME280;13354;48.174;11.566;2023-04-28T08:38:35;95519.56;;;11.95;85.80
25420;BME280;13354;48.174;11.566;2023-04-28T08:41:02;95518.34;;;11.91;86.59
25420;BME280;13354;48.174;11.566;2023-04-28T08:43:28;95523.81;;;11.82;86.86
25420;BME280;13354;48.174;11.566;2023-04-28T08:45:54;95506.28;;;11.88;87.01
25420;BME280;13354;48.174;11.566;2023-04-28T08:48:20;95504.03;;;11.98;87.09
25420;BME280;13354;48.174;11.566;2023-04-28T08:50:47;95509.97;;;11.87;89.47
25420;BME280;13354;48.174;11.566;2023-04-28T08:53:13;95500.78;;;11.90;89.83
25420;BME280;13354;48.174;11.566;2023-04-28T08:55:38;95496.09;;;11.92;91.16
25420;BME280;13354;48.174;11.566;2023-04-28T08:58:03;95504.88;;;12.12;89.52
25420;BME280;13354;48.174;11.566;2023-04-28T09:00:29;95504.66;;;12.07;89.63
25420;BME280;13354;48.174;11.566;2023-04-28T09:02:55;95497.94;;;12.04;88.52
25420;BME280;13354;48.174;11.566;2023-04-28T09:05:20;95499.16;;;12.08;88.42
25420;BME280;13354;48.174;11.566;2023-04-28T09:07:46;95492.41;;;12.06;90.40
25420;BME280;13354;48.174;11.566;2023-04-28T09:10:16;95491.19;;;12.15;88.09
25420;BME280;13354;48.174;11.566;2023-04-28T09:12:45;95494.66;;;12.09;87.96
25420;BME280;13354;48.174;11.566;2023-04-28T09:15:10;95496.09;;;12.12;88.75
25420;BME280;13354;48.174;11.566;2023-04-28T09:17:49;95484.03;;;12.09;88.09
25420;BME280;13354;48.174;11.566;2023-04-28T09:20:18;95482.59;;;12.20;87.18
25420;BME280;13354;48.174;11.566;2023-04-28T09:22:43;95486.28;;;12.19;87.22
25420;BME280;13354;48.174;11.566;2023-04-28T09:25:12;95486.47;;;12.17;89.35
25420;BME280;13354;48.174;11.566;2023-04-28T09:27:37;95474.81;;;12.18;87.87
25420;BME280;13354;48.174;11.566;2023-04-28T09:30:02;95481.97;;;12.11;89.24
25420;BME280;13354;48.174;11.566;2023-04-28T09:32:28;95481.16;;;12.24;88.85
25420;BME280;13354;48.174;11.566;2023-04-28T09:34:54;95488.31;;;12.03;89.87
25420;BME280;13354;48.174;11.566;2023-04-28T09:37:24;95483.63;;;11.99;89.92
25420;BME280;13354;48.174;11.566;2023-04-28T09:39:50;95480.75;;;12.07;92.39
25420;BME280;13354;48.174;11.566;2023-04-28T09:44:59;95490.59;;;11.87;94.60
25420;BME280;13354;48.174;11.566;2023-04-28T09:47:26;95476.88;;;11.76;93.92
25420;BME280;13354;48.174;11.566;2023-04-28T09:49:52;95468.28;;;11.74;96.54
25420;BME280;13354;48.174;11.566;2023-04-28T09:52:18;95473.41;;;11.63;97.29
25420;BME280;13354;48.174;11.566;2023-04-28T09:54:44;95477.28;;;11.47;97.69
25420;BME280;13354;48.174;11.566;2023-04-28T09:57:09;95471.38;;;11.65;97.82
25420;BME280;13354;48.174;11.566;2023-04-28T09:59:35;95462.16;;;11.41;100.00
25420;BME280;13354;48.174;11.566;2023-04-28T10:02:01;95463.19;;;11.46;100.00
25420;BME280;13354;48.174;11.566;2023-04-28T10:04:27;95462.78;;;11.43;100.00
25420;BME280;13354;48.174;11.566;2023-04-28T10:06:57;95480.53;;;11.49;100.00
25420;BME280;13354;48.174;11.566;2023-04-28T10:09:22;95465.88;;;11.53;100.00
25420;BME280;13354;48.174;11.566;2023-04-28T10:11:50;95475.66;;;11.46;99.93
25420;BME280;13354;48.174;11.566;2023-04-28T10:14:16;95476.84;;;11.43;99.97
25420;BME280;13354;48.174;11.566;2023-04-28T10:16:41;95469.09;;;11.48;100.00
25420;BME280;13354;48.174;11.566;2023-04-28T10:19:08;95472.38;;;11.44;100.00
25420;BME280;13354;48.174;11.566;2023-04-28T10:21:34;95472.34;;;11.37;100.00
25420;BME280;13354;48.174;11.566;2023-04-28T10:24:07;95469.53;;;11.39;100.00
25420;BME280;13354;48.174;11.566;2023-04-28T10:29:22;95462.38;;;11.46;100.00
25420;BME280;13354;48.174;11.566;2023-04-28T10:34:31;95457.50;;;11.49;100.00
25420;BME280;13354;48.174;11.566;2023-04-28T10:36:57;95452.19;;;11.49;100.00
25420;BME280;13354;48.174;11.566;2023-04-28T10:39:23;95459.13;;;11.57;100.00
25420;BME280;13354;48.174;11.566;2023-04-28T10:41:48;95454.25;;;11.60;100.00
25420;BME280;13354;48.174;11.566;2023-04-28T10:47:07;95457.50;;;11.69;100.00
25420;BME280;13354;48.174;11.566;2023-04-28T10:57:42;95446.88;;;11.63;100.00
25420;BME280;13354;48.174;11.566;2023-04-28T11:00:29;95454.66;;;11.57;100.00
25420;BME280;13354;48.174;11.566;2023-04-28T11:02:54;95451.78;;;11.59;100.00
25420;BME280;13354;48.174;11.566;2023-04-28T11:05:20;95459.34;;;11.62;100.00
25420;BME280;13354;48.174;11.566;2023-04-28T11:16:10;95462.81;;;11.69;100.00
25420;BME280;13354;48.174;11.566;2023-04-28T11:18:49;95469.31;;;11.73;100.00
25420;BME280;13354;48.174;11.566;2023-04-28T11:21:16;95467.72;;;11.85;100.00
25420;BME280;13354;48.174;11.566;2023-04-28T11:23:41;95470.34;;;11.79;100.00
25420;BME280;13354;48.174;11.566;2023-04-28T11:26:07;95473.19;;;11.77;100.00
25420;BME280;13354;48.174;11.566;2023-04-28T11:28:32;95467.94;;;11.91;100.00
25420;BME280;13354;48.174;11.566;2023-04-28T11:31:11;95472.38;;;11.77;100.00
25420;BME280;13354;48.174;11.566;2023-04-28T11:33:37;95470.78;;;11.82;100.00
25420;BME280;13354;48.174;11.566;2023-04-28T11:36:03;95472.19;;;11.78;100.00
25420;BME280;13354;48.174;11.566;2023-04-28T11:38:28;95472.22;;;11.92;100.00
25420;BME280;13354;48.174;11.566;2023-04-28T11:40:58;95465.28;;;11.97;100.00
25420;BME280;13354;48.174;11.566;2023-04-28T11:43:28;95461.59;;;11.98;100.00
25420;BME280;13354;48.174;11.566;2023-04-28T11:45:53;95459.56;;;11.94;100.00
25420;BME280;13354;48.174;11.566;2023-04-28T11:48:21;95466.50;;;12.01;100.00
25420;BME280;13354;48.174;11.566;2023-04-28T11:50:47;95467.72;;;11.99;100.00
25420;BME280;13354;48.174;11.566;2023-04-28T11:53:12;95461.78;;;12.17;100.00
25420;BME280;13354;48.174;11.566;2023-04-28T11:55:37;95467.50;;;12.07;100.00
25420;BME280;13354;48.174;11.566;2023-04-28T11:58:21;95465.25;;;12.04;100.00
25420;BME280;13354;48.174;11.566;2023-04-28T12:03:31;95459.75;;;12.12;100.00
25420;BME280;13354;48.174;11.566;2023-04-28T12:05:56;95467.91;;;12.17;100.00
25420;BME280;13354;48.174;11.566;2023-04-28T12:08:26;95462.97;;;12.27;100.00
25420;BME280;13354;48.174;11.566;2023-04-28T12:11:10;95470.53;;;12.30;100.00
25420;BME280;13354;48.174;11.566;2023-04-28T12:13:39;95463.78;;;12.35;100.00
25420;BME280;13354;48.174;11.566;2023-04-28T12:16:05;95458.03;;;12.44;100.00
25420;BME280;13354;48.174;11.566;2023-04-28T12:18:34;95450.69;;;12.46;100.00
25420;BME280;13354;48.174;11.566;2023-04-28T12:21:00;95463.88;;;12.66;100.00
25420;BME280;13354;48.174;11.566;2023-04-28T12:25:54;95464.72;;;12.67;100.00
25420;BME280;13354;48.174;11.566;2023-04-28T12:28:19;95471.63;;;12.74;100.00
25420;BME280;13354;48.174;11.566;2023-04-28T12:30:45;95469.72;;;12.88;100.00
25420;BME280;13354;48.174;11.566;2023-04-28T12:33:43;95477.13;;;12.79;100.00
25420;BME280;13354;48.174;11.566;2023-04-28T12:36:02;95473.41;;;12.87;100.00
25420;BME280;13354;48.174;11.566;2023-04-28T12:38:28;95474.84;;;12.90;100.00
25420;BME280;13354;48.174;11.566;2023-04-28T12:40:54;95471.72;;;12.99;100.00
25420;BME280;13354;48.174;11.566;2023-04-28T12:43:19;95467.78;;;13.09;100.00
25420;BME280;13354;48.174;11.566;2023-04-28T12:45:47;95474.88;;;13.21;100.00
25420;BME280;13354;48.174;11.566;2023-04-28T12:48:13;95476.56;;;13.09;100.00
25420;BME280;13354;48.174;11.566;2023-04-28T12:50:38;95476.72;;;13.21;100.00
25420;BME280;13354;48.174;11.566;2023-04-28T12:53:03;95474.06;;;13.21;100.00
25420;BME280;13354;48.174;11.566;2023-04-28T12:55:29;95475.28;;;13.25;100.00
25420;BME280;13354;48.174;11.566;2023-04-28T12:57:54;95471.56;;;13.33;100.00
25420;BME280;13354;48.174;11.566;2023-04-28T13:00:19;95474.19;;;13.39;100.00
25420;BME280;13354;48.174;11.566;2023-04-28T13:02:47;95461.94;;;13.38;100.00
25420;BME280;13354;48.174;11.566;2023-04-28T13:05:12;95463.00;;;13.31;100.00
25420;BME280;13354;48.174;11.566;2023-04-28T13:07:38;95464.94;;;13.48;100.00
25420;BME280;13354;48.174;11.566;2023-04-28T13:10:03;95466.22;;;13.39;100.00
25420;BME280;13354;48.174;11.566;2023-04-28T13:12:29;95461.94;;;13.38;100.00
25420;BME280;13354;48.174;11.566;2023-04-28T13:14:54;95464.75;;;13.43;100.00